Time;durP1;ratioP1;P1;durP2;ratioP2;P2;SDS_P1;SDS_P2;PMS_P1;PMS_P2;Temp;Humidity;BMP_temperature;BMP_pressure;BME280_temperature;BME280_humidity;BME280_pressure;Samples;Min_cycle;Max_cycle;Signal;HPM_P1;HPM_P2
2024/02/21 00:00:44;;;;;;;;;11.75;9.00;;;;;10.77;100.00;99444.78;6052227;28;96444;-55
2024/02/21 00:03:47;;;;;;;;;8.25;7.00;;;;;10.73;100.00;99445.41;6052261;28;96395;-55
2024/02/21 00:06:50;;;;;;;;;10.60;9.00;;;;;10.64;100.00;99443.97;6051836;28;96364;-55
2024/02/21 00:09:53;;;;;;;;;9.25;8.25;;;;;10.60;100.00;99440.03;6052150;28;96362;-55
2024/02/21 00:12:59;;;;;;;;;10.00;9.00;;;;;10.54;100.00;99438.16;6042689;28;96642;-55
2024/02/21 00:16:02;;;;;;;;;9.80;8.00;;;;;10.47;100.00;99437.31;6035955;28;96387;-55
2024/02/21 00:19:37;;;;;;;;;8.50;8.00;;;;;10.31;100.00;99446.66;6070286;23;97814;-87
2024/02/21 00:22:40;;;;;;;;;11.00;9.75;;;;;9.66;100.00;99361.16;6035962;29;97893;-87
2024/02/21 00:25:44;;;;;;;;;9.50;9.00;;;;;10.09;100.00;99448.66;6032151;28;99194;-87
2024/02/21 00:28:49;;;;;;;;;13.50;12.00;;;;;9.99;100.00;99449.06;6425896;23;98004;-54
2024/02/21 00:31:52;;;;;;;;;13.40;9.60;;;;;9.85;100.00;99442.00;6005070;29;98395;-55
2024/02/21 00:34:56;;;;;;;;;12.00;11.00;;;;;9.81;100.00;99445.28;6019255;28;96283;-54
2024/02/21 00:37:59;;;;;;;;;12.00;11.00;;;;;9.80;100.00;99443.63;6004406;29;96491;-54
2024/02/21 00:41:02;;;;;;;;;13.60;13.00;;;;;9.86;100.00;99435.56;6005058;29;96298;-55
2024/02/21 00:44:07;;;;;;;;;14.80;12.20;;;;;9.91;100.00;99438.50;6005157;29;96284;-55
2024/02/21 00:47:11;;;;;;;;;16.00;14.40;;;;;9.96;100.00;99433.31;6004884;29;96432;-55
2024/02/21 00:50:14;;;;;;;;;15.00;13.00;;;;;10.00;100.00;99421.09;6002196;29;96250;-54
2024/02/21 00:53:17;;;;;;;;;16.40;15.00;;;;;10.10;100.00;99420.69;5983034;29;96405;-55
2024/02/21 00:56:20;;;;;;;;;13.50;11.00;;;;;10.08;100.00;99420.06;6004582;29;96937;-55
2024/02/21 00:59:25;;;;;;;;;15.00;12.40;;;;;10.06;100.00;99416.75;6003732;29;96383;-54
2024/02/21 01:02:31;;;;;;;;;17.00;14.00;;;;;10.07;100.00;99413.00;6004422;28;96338;-54
2024/02/21 01:05:34;;;;;;;;;14.60;13.00;;;;;10.06;100.00;99418.63;6005027;28;96348;-54
2024/02/21 01:08:37;;;;;;;;;14.00;13.00;;;;;10.04;100.00;99409.91;6027397;28;96263;-54
2024/02/21 01:11:40;;;;;;;;;15.00;14.00;;;;;10.04;100.00;99409.91;6027570;28;96277;-54
2024/02/21 01:14:45;;;;;;;;;14.60;13.00;;;;;10.05;100.00;99406.19;6027718;28;96446;-54
2024/02/21 01:17:49;;;;;;;;;14.00;12.00;;;;;10.02;100.00;99410.09;6027635;28;96352;-54
2024/02/21 01:20:53;;;;;;;;;17.00;14.50;;;;;10.04;100.00;99407.22;6011433;28;96217;-55
2024/02/21 01:23:56;;;;;;;;;16.75;15.00;;;;;9.91;100.00;99408.03;6027406;28;96369;-55
2024/02/21 01:26:59;;;;;;;;;16.40;15.00;;;;;9.94;100.00;99403.06;6027427;28;96261;-54
2024/02/21 01:30:05;;;;;;;;;16.00;13.75;;;;;9.87;100.00;99406.78;6001776;29;96515;-52
2024/02/21 01:33:09;;;;;;;;;21.00;17.00;;;;;9.80;100.00;99395.16;6010236;29;96290;-52
2024/02/21 01:36:12;;;;;;;;;19.80;14.80;;;;;9.83;100.00;99389.34;6008722;29;96717;-52
2024/02/21 01:39:15;;;;;;;;;17.00;14.00;;;;;9.81;100.00;99391.44;6008654;29;96431;-52
2024/02/21 01:42:19;;;;;;;;;16.40;15.00;;;;;9.79;100.00;99388.09;6008998;29;96322;-51
2024/02/21 01:45:23;;;;;;;;;18.40;14.00;;;;;9.74;100.00;99382.50;5991547;29;96538;-52
2024/02/21 01:48:27;;;;;;;;;15.00;14.60;;;;;9.65;100.00;99376.50;6008625;29;97749;-51
2024/02/21 01:51:31;;;;;;;;;15.00;14.00;;;;;9.64;100.00;99382.06;6009962;29;96301;-52
2024/02/21 01:54:34;;;;;;;;;14.00;12.40;;;;;9.55;100.00;99378.75;6009011;29;96505;-51
2024/02/21 01:57:38;;;;;;;;;15.00;13.00;;;;;9.45;100.00;99373.75;6009254;29;96378;-51
2024/02/21 02:00:45;;;;;;;;;14.00;12.00;;;;;9.34;100.00;99378.88;6007816;29;96490;-51
2024/02/21 02:03:49;;;;;;;;;13.00;12.50;;;;;9.36;100.00;99376.81;6011047;23;96528;-56
2024/02/21 02:06:54;;;;;;;;;13.00;12.00;;;;;9.19;100.00;99345.94;5997547;29;96411;-55
2024/02/21 02:09:57;;;;;;;;;13.00;12.00;;;;;9.19;100.00;99344.03;5998496;29;98311;-56
2024/02/21 02:13:01;;;;;;;;;18.00;14.00;;;;;9.34;100.00;99368.09;6000065;29;96291;-55
2024/02/21 02:16:06;;;;;;;;;17.60;15.60;;;;;9.31;100.00;99361.28;5982538;29;96345;-55
2024/02/21 02:19:12;;;;;;;;;13.00;12.00;;;;;9.34;100.00;99366.25;5999761;29;96317;-55
2024/02/21 02:22:23;;;;;;;;;15.60;13.20;;;;;9.34;100.00;99363.56;5999407;29;96390;-56
2024/02/21 02:25:27;;;;;;;;;17.00;14.00;;;;;9.27;100.00;99351.13;5983063;29;96371;-56
2024/02/21 02:28:31;;;;;;;;;13.25;11.00;;;;;9.40;100.00;99368.13;5997723;29;96879;-55
2024/02/21 02:31:35;;;;;;;;;14.00;13.00;;;;;9.39;100.00;99363.78;5978957;29;96523;-56
2024/02/21 02:34:38;;;;;;;;;13.60;11.00;;;;;9.26;100.00;99338.69;5953006;29;98768;-55
2024/02/21 02:37:48;;;;;;;;;11.00;10.00;;;;;9.35;100.00;99354.47;5999508;29;96501;-56
2024/02/21 02:40:53;;;;;;;;;10.40;9.20;;;;;9.33;100.00;99361.09;5959228;29;96695;-55
2024/02/21 02:43:56;;;;;;;;;12.00;11.25;;;;;9.36;100.00;99363.38;5958210;29;96527;-56
2024/02/21 02:47:00;;;;;;;;;12.00;11.00;;;;;9.36;100.00;99358.81;5976555;29;96331;-56
2024/02/21 02:50:04;;;;;;;;;14.40;11.00;;;;;9.38;100.00;99355.94;5973163;29;98567;-55
2024/02/21 02:53:07;;;;;;;;;13.00;10.00;;;;;9.40;100.00;99357.38;6014444;29;97691;-56
2024/02/21 02:56:16;;;;;;;;;12.20;9.20;;;;;9.48;100.00;99357.19;5999246;29;97505;-55
2024/02/21 02:59:19;;;;;;;;;10.60;9.40;;;;;9.46;100.00;99353.03;5998812;29;96257;-56
2024/02/21 03:02:22;;;;;;;;;12.40;10.40;;;;;9.51;100.00;99358.66;5998656;29;96931;-56
2024/02/21 03:05:26;;;;;;;;;9.25;9.25;;;;;9.56;100.00;99358.88;5997813;29;96326;-55
2024/02/21 03:08:29;;;;;;;;;11.00;10.00;;;;;9.63;100.00;99348.13;5982195;29;96497;-56
2024/02/21 03:11:34;;;;;;;;;8.60;8.60;;;;;9.68;100.00;99348.31;5982211;29;98196;-55
2024/02/21 03:14:37;;;;;;;;;14.40;10.40;;;;;9.73;100.00;99343.16;5998961;29;96389;-56
2024/02/21 03:17:40;;;;;;;;;12.00;9.40;;;;;9.78;100.00;99337.97;5998692;29;96293;-55
2024/02/21 03:20:44;;;;;;;;;10.40;8.40;;;;;9.80;100.00;99341.31;6000020;29;96965;-53
2024/02/21 03:23:47;;;;;;;;;9.80;8.60;;;;;9.79;100.00;99340.47;6000569;29;96641;-53
2024/02/21 03:26:51;;;;;;;;;10.00;9.00;;;;;9.67;100.00;99311.69;6000280;29;96296;-53
2024/02/21 03:29:55;;;;;;;;;10.40;10.00;;;;;9.81;100.00;99337.56;5999061;29;96537;-53
2024/02/21 03:32:58;;;;;;;;;11.00;10.00;;;;;9.60;100.00;99308.97;5999292;29;96289;-53
2024/02/21 03:36:01;;;;;;;;;11.00;9.40;;;;;9.73;100.00;99338.59;5999260;29;96532;-53
2024/02/21 03:39:05;;;;;;;;;9.60;8.00;;;;;9.66;100.00;99335.06;5999910;29;96343;-53
2024/02/21 03:42:09;;;;;;;;;10.00;9.40;;;;;9.65;100.00;99343.34;6000615;29;96313;-53
2024/02/21 03:45:12;;;;;;;;;11.00;11.00;;;;;9.60;100.00;99337.75;6019548;29;96238;-53
2024/02/21 03:48:15;;;;;;;;;10.00;9.00;;;;;9.62;100.00;99341.06;6023611;29;97550;-53
2024/02/21 03:51:18;;;;;;;;;10.00;9.75;;;;;9.66;100.00;99345.84;6023174;29;96518;-54
2024/02/21 03:54:22;;;;;;;;;10.50;9.50;;;;;9.66;100.00;99345.84;6022515;29;96381;-54
2024/02/21 03:57:26;;;;;;;;;11.00;10.50;;;;;9.60;100.00;99335.06;6016200;29;96341;-53
2024/02/21 04:00:29;;;;;;;;;11.00;9.40;;;;;9.67;100.00;99342.13;5999862;29;96306;-54
2024/02/21 04:03:32;;;;;;;;;9.00;7.40;;;;;9.58;100.00;99328.00;5999296;29;96760;-53
2024/02/21 04:06:36;;;;;;;;;12.60;11.00;;;;;9.60;100.00;99340.44;5999724;29;96301;-53
2024/02/21 04:09:39;;;;;;;;;9.20;8.00;;;;;9.44;100.00;99320.94;6000201;29;96409;-53
2024/02/21 04:12:44;;;;;;;;;11.60;10.00;;;;;9.53;100.00;99338.56;5984380;29;97240;-54
2024/02/21 04:15:47;;;;;;;;;10.00;10.00;;;;;9.64;100.00;99333.59;6001300;29;96816;-53
2024/02/21 04:18:50;;;;;;;;;12.25;10.50;;;;;9.61;100.00;99331.34;5999001;29;96338;-54
2024/02/21 04:21:53;;;;;;;;;12.00;10.00;;;;;9.61;100.00;99321.41;5998110;29;96385;-53
2024/02/21 04:24:56;;;;;;;;;13.00;12.00;;;;;9.58;100.00;99313.72;5999412;29;96579;-54
2024/02/21 04:28:01;;;;;;;;;14.00;12.00;;;;;9.62;100.00;99314.16;6009297;29;97090;-54
2024/02/21 04:31:04;;;;;;;;;14.00;11.60;;;;;9.60;100.00;99322.44;6017692;29;96274;-57
2024/02/21 04:34:08;;;;;;;;;13.00;11.67;;;;;9.69;100.00;99329.28;6005516;29;96739;-57
2024/02/21 04:37:11;;;;;;;;;11.40;9.00;;;;;9.55;100.00;99293.44;6009887;29;96591;-58
2024/02/21 04:40:14;;;;;;;;;11.60;10.00;;;;;9.67;100.00;99312.50;6020566;29;96258;-57
2024/02/21 04:43:19;;;;;;;;;11.40;9.00;;;;;9.47;100.00;99268.59;6025457;29;96408;-57
2024/02/21 04:46:22;;;;;;;;;9.00;8.00;;;;;9.60;100.00;99300.91;6010748;29;96159;-57
2024/02/21 04:49:25;;;;;;;;;10.40;9.00;;;;;9.46;100.00;99288.44;6001499;29;96598;-57
2024/02/21 04:52:29;;;;;;;;;10.80;9.20;;;;;9.52;100.00;99280.41;6005851;29;96286;-57
2024/02/21 04:55:32;;;;;;;;;10.00;8.00;;;;;9.50;100.00;99284.31;6021388;29;96393;-57
2024/02/21 04:58:40;;;;;;;;;7.00;6.00;;;;;9.50;100.00;99292.38;6002522;29;96297;-57
2024/02/21 05:01:43;;;;;;;;;6.00;6.00;;;;;9.48;100.00;99297.97;5982928;29;97570;-57
2024/02/21 05:04:47;;;;;;;;;9.60;7.20;;;;;9.52;100.00;99312.69;6001462;29;96329;-56
2024/02/21 05:07:50;;;;;;;;;9.00;8.00;;;;;9.55;100.00;99312.28;6000724;29;96323;-56
2024/02/21 05:10:54;;;;;;;;;10.00;8.00;;;;;9.57;100.00;99312.09;6002446;29;96678;-57
2024/02/21 05:13:58;;;;;;;;;9.00;9.00;;;;;9.62;100.00;99314.16;5999237;29;96306;-56
2024/02/21 05:17:02;;;;;;;;;10.00;8.40;;;;;9.65;100.00;99313.72;6011581;29;96640;-58
2024/02/21 05:20:06;;;;;;;;;9.00;7.80;;;;;9.70;100.00;99311.25;6001652;29;96421;-57
2024/02/21 05:23:10;;;;;;;;;9.80;9.20;;;;;9.71;100.00;99302.97;6019063;29;96886;-57
2024/02/21 05:26:21;;;;;;;;;7.00;6.20;;;;;9.73;100.00;99308.97;6007189;29;96995;-57
2024/02/21 05:29:25;;;;;;;;;10.40;9.00;;;;;9.57;100.00;99277.09;5985077;29;96930;-57
2024/02/21 05:32:29;;;;;;;;;8.25;8.00;;;;;9.64;100.00;99306.69;6010944;29;96282;-57
2024/02/21 05:35:33;;;;;;;;;8.00;7.00;;;;;9.72;100.00;99307.34;6010556;29;96997;-56
2024/02/21 05:38:36;;;;;;;;;8.00;8.00;;;;;9.73;100.00;99306.28;5995851;29;96450;-57
2024/02/21 05:41:39;;;;;;;;;8.00;7.00;;;;;9.73;100.00;99303.59;5974664;29;96556;-53
2024/02/21 05:44:44;;;;;;;;;8.60;7.60;;;;;9.70;100.00;99285.16;5995914;29;98777;-55
2024/02/21 05:47:47;;;;;;;;;10.25;8.00;;;;;9.83;100.00;99306.69;5945142;29;96692;-54
2024/02/21 05:50:50;;;;;;;;;7.00;6.00;;;;;9.91;100.00;99298.44;5995240;29;96340;-54
2024/02/21 05:53:53;;;;;;;;;7.40;7.40;;;;;9.95;100.00;99301.53;5997974;29;96286;-54
2024/02/21 05:56:57;;;;;;;;;8.00;7.00;;;;;10.02;100.00;99300.47;5976233;29;96449;-54
2024/02/21 06:00:01;;;;;;;;;8.40;8.40;;;;;10.07;100.00;99299.84;5977159;29;96598;-54
2024/02/21 06:03:14;;;;;;;;;8.20;7.20;;;;;9.99;100.00;99273.16;5978037;29;99079;-54
2024/02/21 06:06:17;;;;;;;;;8.20;6.80;;;;;10.17;100.00;99302.16;5992883;29;96549;-55
2024/02/21 06:09:21;;;;;;;;;10.40;10.00;;;;;10.20;100.00;99304.47;6005683;29;96584;-53
2024/02/21 06:12:24;;;;;;;;;9.40;9.00;;;;;10.28;100.00;99288.06;5976354;29;97318;-55
2024/02/21 06:15:28;;;;;;;;;8.00;7.00;;;;;10.35;100.00;99300.50;5996032;29;96881;-53
2024/02/21 06:18:31;;;;;;;;;9.50;8.50;;;;;10.32;100.00;99273.13;5995146;29;96441;-54
2024/02/21 06:21:35;;;;;;;;;10.00;9.00;;;;;10.48;100.00;99293.41;5997060;29;96647;-53
2024/02/21 06:24:38;;;;;;;;;10.80;9.00;;;;;10.54;100.00;99287.19;5996924;29;96503;-54
2024/02/21 06:27:41;;;;;;;;;8.00;6.40;;;;;10.62;100.00;99285.06;6012458;29;97348;-54
2024/02/21 06:30:46;;;;;;;;;9.00;8.00;;;;;10.63;100.00;99273.25;6000498;29;97647;-53
2024/02/21 06:33:49;;;;;;;;;9.00;7.50;;;;;10.88;100.00;99288.72;6003376;29;96555;-55
2024/02/21 06:36:52;;;;;;;;;12.67;8.67;;;;;10.92;100.00;99274.59;5977373;29;96385;-54
2024/02/21 06:39:55;;;;;;;;;9.00;8.00;;;;;11.00;100.00;99277.03;5995955;29;96450;-53
2024/02/21 06:42:58;;;;;;;;;11.80;10.40;;;;;11.15;100.00;99282.97;5996164;29;96415;-53
2024/02/21 06:46:03;;;;;;;;;10.40;8.40;;;;;11.10;100.00;99281.97;5996004;29;98033;-53
2024/02/21 06:49:06;;;;;;;;;10.00;8.00;;;;;11.19;100.00;99291.50;5996706;29;96300;-54
2024/02/21 06:52:10;;;;;;;;;9.00;7.00;;;;;11.56;100.00;99303.31;5997948;29;96412;-54
2024/02/21 06:55:13;;;;;;;;;7.00;6.60;;;;;13.33;100.00;99298.84;5998468;29;96505;-54
2024/02/21 06:58:17;;;;;;;;;7.25;7.00;;;;;16.22;100.00;99297.00;5999435;29;96369;-53
2024/02/21 07:01:21;;;;;;;;;8.00;6.00;;;;;18.25;100.00;99298.34;5984570;29;96319;-54
2024/02/21 07:04:25;;;;;;;;;5.20;5.00;;;;;18.41;100.00;99302.81;6001241;29;96308;-54
2024/02/21 07:07:30;;;;;;;;;6.00;6.00;;;;;17.82;100.00;99295.78;6000755;29;96329;-54
2024/02/21 07:10:34;;;;;;;;;7.00;6.00;;;;;17.07;100.00;99283.78;6001634;29;96421;-55
2024/02/21 07:13:37;;;;;;;;;7.40;6.00;;;;;16.65;100.00;99282.69;6001490;29;96377;-53
2024/02/21 07:16:42;;;;;;;;;5.00;5.00;;;;;16.54;100.00;99286.31;6001670;29;96409;-54
2024/02/21 07:19:45;;;;;;;;;7.00;7.00;;;;;16.86;100.00;99282.69;6000663;29;96435;-53
2024/02/21 07:22:48;;;;;;;;;6.00;6.00;;;;;17.50;100.00;99280.16;6001195;29;96356;-54
2024/02/21 07:25:51;;;;;;;;;6.00;6.00;;;;;18.55;100.00;99282.19;6001464;29;96723;-54
2024/02/21 07:28:54;;;;;;;;;6.25;5.75;;;;;20.62;100.00;99267.31;5979078;29;96560;-54
2024/02/21 07:31:59;;;;;;;;;9.00;6.00;;;;;23.55;100.00;99269.63;5979561;29;97629;-54
2024/02/21 07:35:03;;;;;;;;;6.20;6.00;;;;;26.39;82.76;99270.31;5978333;29;97546;-54
2024/02/21 07:38:07;;;;;;;;;6.40;6.40;;;;;28.10;71.31;99269.94;5978306;29;96610;-54
2024/02/21 07:41:10;;;;;;;;;7.00;6.00;;;;;28.93;65.35;99272.41;5985255;29;96388;-54
2024/02/21 07:44:13;;;;;;;;;7.20;7.00;;;;;28.40;64.85;99254.28;6006155;29;96310;-55
2024/02/21 07:47:18;;;;;;;;;7.00;6.40;;;;;27.54;64.72;99262.63;6023569;29;96408;-54
2024/02/21 07:50:22;;;;;;;;;6.00;6.00;;;;;26.71;67.50;99264.47;6010441;29;96831;-54
2024/02/21 07:53:25;;;;;;;;;6.50;5.50;;;;;26.24;68.30;99224.53;6001487;29;96406;-54
2024/02/21 07:56:29;;;;;;;;;5.00;4.00;;;;;26.35;63.67;99242.47;6005482;29;97084;-54
2024/02/21 07:59:32;;;;;;;;;6.00;6.00;;;;;28.25;62.71;99246.47;6002476;29;96597;-54
2024/02/21 08:02:37;;;;;;;;;5.00;5.00;;;;;29.98;52.45;99238.88;5995690;29;96874;-55
2024/02/21 08:05:41;;;;;;;;;5.00;4.00;;;;;30.42;51.44;99240.88;5977689;29;96964;-54
2024/02/21 08:08:44;;;;;;;;;4.00;4.00;;;;;29.72;52.16;99233.53;5976049;29;96364;-55
2024/02/21 08:11:47;;;;;;;;;7.80;5.80;;;;;29.71;51.84;99243.03;6007376;29;96285;-54
2024/02/21 08:14:50;;;;;;;;;4.20;3.80;;;;;29.86;53.17;99236.03;5988915;29;96944;-54
2024/02/21 08:17:58;;;;;;;;;5.00;4.00;;;;;29.94;51.45;99230.44;6003071;29;96786;-54
2024/02/21 08:21:02;;;;;;;;;4.00;4.00;;;;;29.93;50.37;99225.19;6020308;29;96370;-55
2024/02/21 08:24:05;;;;;;;;;6.75;5.00;;;;;29.12;50.98;99222.84;6017154;29;96427;-55
2024/02/21 08:27:09;;;;;;;;;4.00;4.00;;;;;26.80;55.33;99228.53;5999969;29;96215;-54
2024/02/21 08:30:13;;;;;;;;;5.00;4.00;;;;;24.63;61.59;99224.25;5999597;29;96427;-54
2024/02/21 08:33:18;;;;;;;;;6.00;6.00;;;;;22.89;70.08;99215.44;5983761;29;96257;-54
2024/02/21 08:36:22;;;;;;;;;4.00;4.00;;;;;21.39;78.50;99214.63;6000987;29;96437;-54
2024/02/21 08:39:25;;;;;;;;;4.00;4.00;;;;;20.35;94.83;99206.56;6003277;29;96212;-53
2024/02/21 08:42:29;;;;;;;;;6.00;5.25;;;;;19.60;100.00;99211.78;6004846;29;96282;-52
2024/02/21 08:45:35;;;;;;;;;7.00;6.00;;;;;20.22;94.91;99200.56;6004174;29;96175;-54
2024/02/21 08:48:39;;;;;;;;;5.00;5.00;;;;;22.45;81.17;99207.41;5976184;29;96254;-55
2024/02/21 08:51:43;;;;;;;;;7.00;7.00;;;;;24.24;70.79;99208.19;6001946;29;96347;-55
2024/02/21 08:54:46;;;;;;;;;6.50;6.50;;;;;25.27;69.35;99205.84;6001525;29;96406;-55
2024/02/21 08:57:50;;;;;;;;;5.00;5.00;;;;;25.39;67.86;99198.66;6001765;29;96483;-55
2024/02/21 09:00:53;;;;;;;;;8.00;6.50;;;;;25.08;65.22;99186.66;6011084;29;96877;-55
2024/02/21 09:03:58;;;;;;;;;8.00;7.40;;;;;25.27;67.66;99195.63;5990898;29;97103;-55
2024/02/21 09:07:01;;;;;;;;;7.00;6.00;;;;;25.19;65.29;99187.25;6001094;29;98988;-55
2024/02/21 09:10:05;;;;;;;;;7.00;6.00;;;;;25.43;63.58;99183.09;5985415;29;96424;-55
2024/02/21 09:13:08;;;;;;;;;7.40;7.00;;;;;27.34;59.87;99177.38;6002144;29;96955;-55
2024/02/21 09:16:11;;;;;;;;;7.25;7.00;;;;;28.48;56.35;99186.88;6000051;29;96252;-55
2024/02/21 09:19:17;;;;;;;;;6.00;6.00;;;;;28.11;54.05;99194.00;6001007;29;96323;-55
2024/02/21 09:22:21;;;;;;;;;6.00;6.00;;;;;27.35;56.81;99188.16;5980260;29;96635;-55
2024/02/21 09:25:24;;;;;;;;;4.00;3.80;;;;;26.41;58.42;99182.31;5975963;29;96270;-56
2024/02/21 09:28:27;;;;;;;;;5.00;5.00;;;;;25.67;61.30;99193.88;5978287;29;96922;-55
2024/02/21 09:31:31;;;;;;;;;7.00;6.00;;;;;25.73;63.96;99191.81;5998491;29;96321;-55
2024/02/21 09:34:35;;;;;;;;;3.50;3.50;;;;;26.61;60.72;99196.41;5999291;29;96721;-55
2024/02/21 09:37:39;;;;;;;;;6.00;5.00;;;;;28.64;54.87;99196.25;5999734;29;96992;-57
2024/02/21 09:40:42;;;;;;;;;4.00;3.00;;;;;31.21;46.72;99208.16;5983156;29;96639;-56
2024/02/21 09:43:46;;;;;;;;;3.00;2.00;;;;;33.02;42.28;99197.28;5985828;29;96726;-57
2024/02/21 09:46:56;;;;;;;;;4.00;3.60;;;;;33.03;38.41;99177.38;6002327;29;97561;-57
2024/02/21 09:50:04;;;;;;;;;4.00;3.00;;;;;32.90;37.64;99195.41;6002157;29;97836;-57
2024/02/21 09:53:07;;;;;;;;;3.50;3.00;;;;;32.62;39.86;99189.09;6002443;29;96355;-56
2024/02/21 09:56:12;;;;;;;;;3.00;3.00;;;;;31.66;41.73;99192.06;6002043;29;96427;-56
2024/02/21 09:59:18;;;;;;;;;4.00;4.00;;;;;30.61;41.20;99183.91;6001211;29;96255;-56
2024/02/21 10:02:21;;;;;;;;;4.00;4.00;;;;;31.05;44.34;99191.34;6001300;29;96311;-57
2024/02/21 10:05:27;;;;;;;;;4.00;4.00;;;;;30.41;44.77;99194.75;6001646;29;96252;-56
2024/02/21 10:08:30;;;;;;;;;5.00;4.60;;;;;29.98;46.49;99178.53;5984010;29;96584;-57
2024/02/21 10:11:34;;;;;;;;;7.00;5.00;;;;;28.14;47.79;99162.03;6000956;29;96323;-56
2024/02/21 10:14:38;;;;;;;;;4.00;4.00;;;;;27.72;50.58;99159.00;5984896;29;96955;-56
2024/02/21 10:17:41;;;;;;;;;6.00;5.00;;;;;26.78;52.96;99143.06;6001211;29;96448;-56
2024/02/21 10:20:46;;;;;;;;;4.00;4.00;;;;;25.95;55.95;99153.13;6002825;29;96302;-59
2024/02/21 10:23:50;;;;;;;;;5.00;4.00;;;;;25.99;58.01;99153.31;6010644;29;96301;-58
2024/02/21 10:27:00;;;;;;;;;5.20;5.00;;;;;26.29;56.05;99145.03;6011882;29;96258;-58
2024/02/21 10:30:04;;;;;;;;;4.00;4.00;;;;;26.48;56.31;99150.34;5999875;29;96364;-58
2024/02/21 10:33:07;;;;;;;;;4.00;4.00;;;;;26.33;55.27;99142.47;5998905;29;98381;-57
2024/02/21 10:36:13;;;;;;;;;4.00;3.00;;;;;26.52;55.58;99137.50;6016378;29;96468;-58
2024/02/21 10:39:16;;;;;;;;;3.60;3.00;;;;;26.53;56.25;99130.84;6016466;29;96328;-59
2024/02/21 10:42:22;;;;;;;;;5.00;4.00;;;;;26.21;55.88;99125.63;6017436;29;96858;-59
2024/02/21 10:45:31;;;;;;;;;4.00;4.00;;;;;26.47;56.75;99112.75;6017817;29;96476;-58
2024/02/21 10:48:44;;;;;;;;;4.00;4.00;;;;;26.71;54.25;99109.56;6017752;29;96840;-58
2024/02/21 10:51:56;;;;;;;;;4.00;4.00;;;;;29.45;48.89;99121.00;5999988;29;96305;-60
2024/02/21 10:55:04;;;;;;;;;5.40;4.00;;;;;32.23;41.85;99121.94;6016601;29;96201;-60
2024/02/21 10:58:10;;;;;;;;;4.00;4.00;;;;;34.34;38.22;99118.59;5997716;29;99300;-61
2024/02/21 11:01:15;;;;;;;;;5.00;5.00;;;;;35.90;34.69;99100.38;6021305;29;96417;-61
2024/02/21 11:04:18;;;;;;;;;5.00;4.00;;;;;36.70;32.43;99101.53;6032334;29;96730;-61
2024/02/21 11:07:23;;;;;;;;;4.00;4.00;;;;;35.96;34.05;99087.63;6037677;29;96529;-61
2024/02/21 11:10:27;;;;;;;;;5.00;3.80;;;;;34.04;36.17;99083.25;6040226;29;96365;-61
2024/02/21 11:13:32;;;;;;;;;3.00;3.00;;;;;31.57;40.26;99065.16;6026271;29;96376;-61
2024/02/21 11:16:42;;;;;;;;;4.00;4.00;;;;;29.34;45.23;99080.91;6039688;29;95966;-60
2024/02/21 11:19:46;;;;;;;;;5.40;4.40;;;;;27.42;51.01;99074.13;6034911;29;96346;-59
2024/02/21 11:22:50;;;;;;;;;4.00;3.00;;;;;25.74;56.51;99081.03;6034541;29;96294;-58
2024/02/21 11:26:04;;;;;;;;;5.00;4.60;;;;;24.30;62.17;99071.13;6035193;29;96538;-58
2024/02/21 11:29:09;;;;;;;;;5.00;4.00;;;;;23.67;66.50;99069.03;6029822;29;97603;-58
2024/02/21 11:32:15;;;;;;;;;4.00;4.00;;;;;23.77;65.95;99043.25;6012292;29;96594;-56
2024/02/21 11:35:21;;;;;;;;;4.00;3.20;;;;;24.48;64.89;99056.44;6007562;29;96274;-56
2024/02/21 11:38:25;;;;;;;;;5.00;4.50;;;;;24.02;65.02;99054.59;6007453;29;96306;-55
2024/02/21 11:41:28;;;;;;;;;5.00;5.00;;;;;22.98;67.86;99056.13;6000999;29;96422;-55
2024/02/21 11:44:32;;;;;;;;;4.80;4.80;;;;;21.97;71.96;99042.63;6006792;29;96225;-55
2024/02/21 11:47:38;;;;;;;;;5.00;5.00;;;;;21.31;77.13;99045.19;6007720;29;96287;-55
2024/02/21 11:50:43;;;;;;;;;6.20;6.00;;;;;21.16;80.65;99043.41;6022529;29;96252;-55
2024/02/21 11:53:48;;;;;;;;;6.00;6.00;;;;;20.99;81.69;99039.41;6012197;29;96487;-55
2024/02/21 11:57:04;;;;;;;;;6.00;5.00;;;;;20.72;84.05;99024.22;5996403;29;96230;-55
2024/02/21 12:00:15;;;;;;;;;6.60;6.00;;;;;22.00;81.87;99024.75;5991658;29;96446;-54
2024/02/21 12:03:19;;;;;;;;;7.00;6.00;;;;;22.56;76.17;99027.59;5999389;29;97625;-55
2024/02/21 12:06:22;;;;;;;;;7.00;7.00;;;;;22.48;74.92;99018.06;6004500;29;96724;-54
2024/02/21 12:09:27;;;;;;;;;5.67;5.00;;;;;21.79;76.78;99021.41;6003102;29;96506;-55
2024/02/21 12:12:30;;;;;;;;;6.40;6.40;;;;;21.17;80.80;99017.63;5996134;29;96292;-54
2024/02/21 12:15:33;;;;;;;;;7.00;7.00;;;;;20.63;85.09;99022.38;5979867;29;96676;-54
2024/02/21 12:18:37;;;;;;;;;6.00;5.00;;;;;20.06;90.07;99020.19;5987153;29;96179;-54
2024/02/21 12:21:40;;;;;;;;;7.00;5.60;;;;;19.43;95.38;99017.06;5981300;29;96265;-55
2024/02/21 12:24:47;;;;;;;;;7.60;7.00;;;;;18.85;100.00;99019.28;6002629;29;96425;-54
2024/02/21 12:27:51;;;;;;;;;8.00;7.00;;;;;18.51;100.00;99010.75;5994192;29;96437;-54
2024/02/21 12:30:54;;;;;;;;;8.00;7.60;;;;;18.23;100.00;99013.94;5995712;29;96331;-54
2024/02/21 12:33:57;;;;;;;;;6.60;6.00;;;;;17.94;100.00;99016.28;6000323;29;96418;-55
2024/02/21 12:37:03;;;;;;;;;9.00;8.00;;;;;17.93;100.00;99011.94;5999419;29;96424;-55
2024/02/21 12:40:10;;;;;;;;;7.00;7.00;;;;;17.60;100.00;99004.94;5989736;29;96320;-54
2024/02/21 12:43:13;;;;;;;;;8.50;7.00;;;;;17.50;100.00;99009.47;5997092;29;96547;-57
2024/02/21 12:46:19;;;;;;;;;9.00;7.00;;;;;17.37;100.00;99009.94;5997760;29;96656;-57
2024/02/21 12:49:24;;;;;;;;;6.40;5.60;;;;;17.15;100.00;98980.91;5996795;29;96974;-57
2024/02/21 12:52:27;;;;;;;;;9.00;8.00;;;;;17.29;100.00;98993.00;5985858;29;96741;-57
2024/02/21 12:55:32;;;;;;;;;6.00;6.00;;;;;17.15;100.00;99002.69;5996854;29;96459;-57
2024/02/21 12:58:36;;;;;;;;;8.25;7.25;;;;;17.06;100.00;98995.28;5983910;29;97082;-57
2024/02/21 13:01:39;;;;;;;;;6.00;6.00;;;;;17.05;100.00;98996.38;5970680;29;96531;-57
2024/02/21 13:04:42;;;;;;;;;7.00;7.00;;;;;16.82;100.00;98997.53;5990435;29;96403;-57
2024/02/21 13:07:46;;;;;;;;;5.00;5.00;;;;;16.70;100.00;98992.28;5991416;29;96391;-57
2024/02/21 13:10:50;;;;;;;;;6.20;6.00;;;;;16.53;100.00;98947.97;5995285;29;96444;-57
2024/02/21 13:13:57;;;;;;;;;7.00;6.00;;;;;16.88;100.00;98964.66;5979971;29;96488;-57
2024/02/21 13:17:01;;;;;;;;;7.00;6.00;;;;;16.92;100.00;98983.19;5997312;29;96449;-57
2024/02/21 13:20:05;;;;;;;;;7.50;7.00;;;;;16.78;100.00;98991.81;5996581;29;97666;-57
2024/02/21 13:23:09;;;;;;;;;6.60;6.00;;;;;16.44;100.00;98983.03;5987964;29;97055;-57
2024/02/21 13:26:14;;;;;;;;;9.67;8.67;;;;;16.23;100.00;98986.59;5997387;29;96409;-57
2024/02/21 13:29:17;;;;;;;;;9.00;7.00;;;;;16.11;100.00;98976.94;5997578;29;96329;-57
2024/02/21 13:32:20;;;;;;;;;6.20;6.20;;;;;15.87;100.00;98960.09;5991597;29;96864;-57
2024/02/21 13:35:23;;;;;;;;;7.00;7.00;;;;;15.80;100.00;98981.19;5992040;29;96939;-57
2024/02/21 13:38:28;;;;;;;;;8.00;6.60;;;;;15.65;100.00;98978.28;5997711;29;96446;-57
2024/02/21 13:41:33;;;;;;;;;6.80;6.00;;;;;15.33;100.00;98969.97;5993356;29;96397;-57
2024/02/21 13:44:37;;;;;;;;;8.25;7.25;;;;;14.98;100.00;98957.50;5985867;29;96415;-57
2024/02/21 13:47:40;;;;;;;;;8.60;8.00;;;;;14.86;100.00;98964.06;5997890;29;96431;-57
2024/02/21 13:50:43;;;;;;;;;9.75;8.00;;;;;14.75;100.00;98941.41;5988405;29;96364;-57
2024/02/21 13:53:46;;;;;;;;;8.80;7.80;;;;;14.71;100.00;98946.47;5992529;29;97113;-54
2024/02/21 13:56:51;;;;;;;;;9.60;8.40;;;;;14.84;100.00;98968.94;5999447;29;96361;-54
2024/02/21 13:59:54;;;;;;;;;7.00;7.00;;;;;14.82;100.00;98971.06;5999346;29;97085;-54
2024/02/21 14:02:59;;;;;;;;;9.00;8.00;;;;;14.84;100.00;98952.66;6002742;29;96920;-54
2024/02/21 14:06:03;;;;;;;;;10.00;9.00;;;;;14.80;100.00;98948.81;5998939;29;96411;-54
2024/02/21 14:09:07;;;;;;;;;8.00;7.00;;;;;14.68;100.00;98949.69;5991355;29;96358;-54
2024/02/21 14:12:12;;;;;;;;;8.00;8.00;;;;;14.69;100.00;98950.53;5970623;29;97623;-54
2024/02/21 14:15:16;;;;;;;;;6.00;6.00;;;;;14.56;100.00;98943.50;5998585;29;96395;-53
2024/02/21 14:18:19;;;;;;;;;8.00;8.00;;;;;14.49;100.00;98948.28;5987141;29;96483;-54